sensor_id;sensor_type;location;lat;lon;timestamp;temperature;humidity
58568;DHT22;44354;46.192;-1.076;2023-03-21T00:02:11;7.30;99.90
58568;DHT22;44354;46.192;-1.076;2023-03-21T00:04:37;7.30;99.90
58568;DHT22;44354;46.192;-1.076;2023-03-21T00:07:02;7.20;99.90
58568;DHT22;44354;46.192;-1.076;2023-03-21T00:09:28;7.20;99.90
58568;DHT22;44354;46.192;-1.076;2023-03-21T00:11:53;7.20;99.90
58568;DHT22;44354;46.192;-1.076;2023-03-21T00:14:19;7.10;99.90
58568;DHT22;44354;46.192;-1.076;2023-03-21T00:16:45;7.10;99.90
58568;DHT22;44354;46.192;-1.076;2023-03-21T00:19:16;7.10;99.90
58568;DHT22;44354;46.192;-1.076;2023-03-21T00:21:43;7.10;99.90
58568;DHT22;44354;46.192;-1.076;2023-03-21T00:24:09;7.10;99.90
58568;DHT22;44354;46.192;-1.076;2023-03-21T00:26:35;7.20;99.90
58568;DHT22;44354;46.192;-1.076;2023-03-21T00:29:02;7.10;99.90
58568;DHT22;44354;46.192;-1.076;2023-03-21T00:31:27;7.10;99.90
58568;DHT22;44354;46.192;-1.076;2023-03-21T00:33:53;7.10;99.90
58568;DHT22;44354;46.192;-1.076;2023-03-21T00:36:19;7.10;99.90
58568;DHT22;44354;46.192;-1.076;2023-03-21T00:38:45;7.10;99.90
58568;DHT22;44354;46.192;-1.076;2023-03-21T00:41:11;7.10;99.90
58568;DHT22;44354;46.192;-1.076;2023-03-21T00:43:39;7.10;99.90
58568;DHT22;44354;46.192;-1.076;2023-03-21T00:46:04;7.10;99.90
58568;DHT22;44354;46.192;-1.076;2023-03-21T00:48:30;7.10;99.90
58568;DHT22;44354;46.192;-1.076;2023-03-21T00:50:56;7.10;99.90
58568;DHT22;44354;46.192;-1.076;2023-03-21T00:53:23;7.10;99.90
58568;DHT22;44354;46.192;-1.076;2023-03-21T00:55:49;7.10;99.90
58568;DHT22;44354;46.192;-1.076;2023-03-21T00:58:15;7.20;99.90
58568;DHT22;44354;46.192;-1.076;2023-03-21T01:00:40;7.20;99.90
58568;DHT22;44354;46.192;-1.076;2023-03-21T01:03:06;7.20;99.90
58568;DHT22;44354;46.192;-1.076;2023-03-21T01:05:34;7.30;99.90
58568;DHT22;44354;46.192;-1.076;2023-03-21T01:08:20;7.30;99.90
58568;DHT22;44354;46.192;-1.076;2023-03-21T01:10:46;7.40;99.90
58568;DHT22;44354;46.192;-1.076;2023-03-21T01:13:13;7.40;99.90
58568;DHT22;44354;46.192;-1.076;2023-03-21T01:15:43;7.40;99.90
58568;DHT22;44354;46.192;-1.076;2023-03-21T01:18:09;7.40;99.90
58568;DHT22;44354;46.192;-1.076;2023-03-21T01:20:35;7.50;99.90
58568;DHT22;44354;46.192;-1.076;2023-03-21T01:23:01;7.50;99.90
58568;DHT22;44354;46.192;-1.076;2023-03-21T01:25:26;7.60;99.90
58568;DHT22;44354;46.192;-1.076;2023-03-21T01:27:52;7.60;99.90
58568;DHT22;44354;46.192;-1.076;2023-03-21T01:30:19;7.70;99.90
58568;DHT22;44354;46.192;-1.076;2023-03-21T01:32:45;7.80;99.90
58568;DHT22;44354;46.192;-1.076;2023-03-21T01:35:10;7.90;99.90
58568;DHT22;44354;46.192;-1.076;2023-03-21T01:37:36;7.90;99.90
58568;DHT22;44354;46.192;-1.076;2023-03-21T01:40:02;7.90;99.90
58568;DHT22;44354;46.192;-1.076;2023-03-21T01:42:29;7.80;99.90
58568;DHT22;44354;46.192;-1.076;2023-03-21T01:47:21;7.90;99.90
58568;DHT22;44354;46.192;-1.076;2023-03-21T01:49:48;7.90;99.90
58568;DHT22;44354;46.192;-1.076;2023-03-21T01:52:19;7.90;99.90
58568;DHT22;44354;46.192;-1.076;2023-03-21T01:54:45;7.80;99.90
58568;DHT22;44354;46.192;-1.076;2023-03-21T01:57:15;7.80;99.90
58568;DHT22;44354;46.192;-1.076;2023-03-21T01:59:44;7.90;99.90
58568;DHT22;44354;46.192;-1.076;2023-03-21T02:02:11;7.80;99.90
58568;DHT22;44354;46.192;-1.076;2023-03-21T02:04:38;7.90;99.90
58568;DHT22;44354;46.192;-1.076;2023-03-21T02:07:09;7.90;99.90
58568;DHT22;44354;46.192;-1.076;2023-03-21T02:09:36;8.00;99.90
58568;DHT22;44354;46.192;-1.076;2023-03-21T02:12:04;8.00;99.90
58568;DHT22;44354;46.192;-1.076;2023-03-21T02:14:32;8.00;99.90
58568;DHT22;44354;46.192;-1.076;2023-03-21T02:17:21;8.00;99.90
58568;DHT22;44354;46.192;-1.076;2023-03-21T02:27:31;8.10;99.90
58568;DHT22;44354;46.192;-1.076;2023-03-21T02:37:42;8.00;99.90
58568;DHT22;44354;46.192;-1.076;2023-03-21T02:40:56;8.00;99.90
58568;DHT22;44354;46.192;-1.076;2023-03-21T02:45:40;8.10;99.90
58568;DHT22;44354;46.192;-1.076;2023-03-21T02:48:10;8.10;99.90
58568;DHT22;44354;46.192;-1.076;2023-03-21T02:50:41;8.20;99.90
58568;DHT22;44354;46.192;-1.076;2023-03-21T02:53:08;8.20;99.90
58568;DHT22;44354;46.192;-1.076;2023-03-21T02:55:34;8.20;99.90
58568;DHT22;44354;46.192;-1.076;2023-03-21T02:58:01;8.20;99.90
58568;DHT22;44354;46.192;-1.076;2023-03-21T03:00:28;8.30;99.90
58568;DHT22;44354;46.192;-1.076;2023-03-21T03:02:54;8.20;99.90
58568;DHT22;44354;46.192;-1.076;2023-03-21T03:05:21;8.20;99.90
58568;DHT22;44354;46.192;-1.076;2023-03-21T03:10:48;8.20;99.90
58568;DHT22;44354;46.192;-1.076;2023-03-21T03:18:49;8.00;99.90
58568;DHT22;44354;46.192;-1.076;2023-03-21T03:21:09;8.00;99.90
58568;DHT22;44354;46.192;-1.076;2023-03-21T03:23:43;7.90;99.90
58568;DHT22;44354;46.192;-1.076;2023-03-21T03:28:38;8.10;99.90
58568;DHT22;44354;46.192;-1.076;2023-03-21T03:31:06;8.10;99.90
58568;DHT22;44354;46.192;-1.076;2023-03-21T03:33:33;8.20;99.90
58568;DHT22;44354;46.192;-1.076;2023-03-21T03:36:02;8.10;99.90
58568;DHT22;44354;46.192;-1.076;2023-03-21T03:38:28;8.10;99.90
58568;DHT22;44354;46.192;-1.076;2023-03-21T03:40:55;8.10;99.90
58568;DHT22;44354;46.192;-1.076;2023-03-21T03:43:25;8.00;99.90
58568;DHT22;44354;46.192;-1.076;2023-03-21T03:45:59;8.00;99.90
58568;DHT22;44354;46.192;-1.076;2023-03-21T03:48:29;7.90;99.90
58568;DHT22;44354;46.192;-1.076;2023-03-21T03:50:57;7.90;99.90
58568;DHT22;44354;46.192;-1.076;2023-03-21T03:53:29;7.90;99.90
58568;DHT22;44354;46.192;-1.076;2023-03-21T03:55:57;7.80;99.90
58568;DHT22;44354;46.192;-1.076;2023-03-21T03:58:24;7.80;99.90
58568;DHT22;44354;46.192;-1.076;2023-03-21T04:00:51;7.70;99.90
58568;DHT22;44354;46.192;-1.076;2023-03-21T04:03:16;7.70;99.90
58568;DHT22;44354;46.192;-1.076;2023-03-21T04:05:42;7.60;99.90
58568;DHT22;44354;46.192;-1.076;2023-03-21T04:08:11;7.60;99.90
58568;DHT22;44354;46.192;-1.076;2023-03-21T04:10:36;7.60;99.90
58568;DHT22;44354;46.192;-1.076;2023-03-21T04:13:02;7.60;99.90
58568;DHT22;44354;46.192;-1.076;2023-03-21T04:15:27;7.60;99.90
58568;DHT22;44354;46.192;-1.076;2023-03-21T04:17:53;7.70;99.90
58568;DHT22;44354;46.192;-1.076;2023-03-21T04:20:18;7.70;99.90
58568;DHT22;44354;46.192;-1.076;2023-03-21T04:22:44;7.60;99.90
58568;DHT22;44354;46.192;-1.076;2023-03-21T04:25:09;7.60;99.90
58568;DHT22;44354;46.192;-1.076;2023-03-21T04:27:35;7.60;99.90
58568;DHT22;44354;46.192;-1.076;2023-03-21T04:30:01;7.60;99.90
58568;DHT22;44354;46.192;-1.076;2023-03-21T04:32:26;7.60;99.90
58568;DHT22;44354;46.192;-1.076;2023-03-21T04:34:52;7.70;99.90
58568;DHT22;44354;46.192;-1.076;2023-03-21T04:37:21;7.60;99.90
58568;DHT22;44354;46.192;-1.076;2023-03-21T04:39:48;7.60;99.90
58568;DHT22;44354;46.192;-1.076;2023-03-21T04:42:14;7.60;99.90
58568;DHT22;44354;46.192;-1.076;2023-03-21T04:44:40;7.60;99.90
58568;DHT22;44354;46.192;-1.076;2023-03-21T04:47:06;7.60;99.90
58568;DHT22;44354;46.192;-1.076;2023-03-21T04:49:31;7.60;99.90
58568;DHT22;44354;46.192;-1.076;2023-03-21T04:51:57;7.60;99.90
58568;DHT22;44354;46.192;-1.076;2023-03-21T04:54:22;7.70;99.90
58568;DHT22;44354;46.192;-1.076;2023-03-21T04:56:48;7.60;99.90
58568;DHT22;44354;46.192;-1.076;2023-03-21T04:59:16;7.70;99.90
58568;DHT22;44354;46.192;-1.076;2023-03-21T05:01:42;7.60;99.90
58568;DHT22;44354;46.192;-1.076;2023-03-21T05:04:09;7.60;99.90
58568;DHT22;44354;46.192;-1.076;2023-03-21T05:06:35;7.60;99.90
58568;DHT22;44354;46.192;-1.076;2023-03-21T05:09:01;7.70;99.90
58568;DHT22;44354;46.192;-1.076;2023-03-21T05:11:30;7.70;99.90
58568;DHT22;44354;46.192;-1.076;2023-03-21T05:13:56;7.70;99.90
58568;DHT22;44354;46.192;-1.076;2023-03-21T05:16:22;7.70;99.90
58568;DHT22;44354;46.192;-1.076;2023-03-21T05:18:51;7.70;99.90
58568;DHT22;44354;46.192;-1.076;2023-03-21T05:21:19;7.70;99.90
58568;DHT22;44354;46.192;-1.076;2023-03-21T05:23:44;7.70;99.90
58568;DHT22;44354;46.192;-1.076;2023-03-21T05:26:18;7.70;99.90
58568;DHT22;44354;46.192;-1.076;2023-03-21T05:28:44;7.80;99.90
58568;DHT22;44354;46.192;-1.076;2023-03-21T05:31:16;7.90;99.90
58568;DHT22;44354;46.192;-1.076;2023-03-21T05:33:42;8.00;99.90
58568;DHT22;44354;46.192;-1.076;2023-03-21T05:36:08;7.90;99.90
58568;DHT22;44354;46.192;-1.076;2023-03-21T05:38:33;7.90;99.90
58568;DHT22;44354;46.192;-1.076;2023-03-21T05:40:59;7.90;99.90
58568;DHT22;44354;46.192;-1.076;2023-03-21T05:43:25;8.00;99.90
58568;DHT22;44354;46.192;-1.076;2023-03-21T05:45:50;7.90;99.90
58568;DHT22;44354;46.192;-1.076;2023-03-21T05:48:16;8.00;99.90
58568;DHT22;44354;46.192;-1.076;2023-03-21T05:50:42;8.00;99.90
58568;DHT22;44354;46.192;-1.076;2023-03-21T05:53:07;7.90;99.90
58568;DHT22;44354;46.192;-1.076;2023-03-21T05:55:33;8.00;99.90
58568;DHT22;44354;46.192;-1.076;2023-03-21T05:57:58;8.00;99.90
58568;DHT22;44354;46.192;-1.076;2023-03-21T06:00:24;8.00;99.90
58568;DHT22;44354;46.192;-1.076;2023-03-21T06:02:49;8.10;99.90
58568;DHT22;44354;46.192;-1.076;2023-03-21T06:05:15;8.10;99.90
58568;DHT22;44354;46.192;-1.076;2023-03-21T06:07:41;8.10;99.90
58568;DHT22;44354;46.192;-1.076;2023-03-21T06:10:06;8.20;99.90
58568;DHT22;44354;46.192;-1.076;2023-03-21T06:12:32;8.30;99.90
58568;DHT22;44354;46.192;-1.076;2023-03-21T06:14:58;8.40;99.90
58568;DHT22;44354;46.192;-1.076;2023-03-21T06:17:24;8.40;99.90
58568;DHT22;44354;46.192;-1.076;2023-03-21T06:19:49;8.50;99.90
58568;DHT22;44354;46.192;-1.076;2023-03-21T06:22:15;8.50;99.90
58568;DHT22;44354;46.192;-1.076;2023-03-21T06:24:40;8.50;99.90
58568;DHT22;44354;46.192;-1.076;2023-03-21T06:27:06;8.60;99.90
58568;DHT22;44354;46.192;-1.076;2023-03-21T06:29:31;8.60;99.90
58568;DHT22;44354;46.192;-1.076;2023-03-21T06:31:57;8.70;99.90
58568;DHT22;44354;46.192;-1.076;2023-03-21T06:34:22;8.70;99.90
58568;DHT22;44354;46.192;-1.076;2023-03-21T06:36:48;8.70;99.90
58568;DHT22;44354;46.192;-1.076;2023-03-21T06:39:16;8.80;99.90
58568;DHT22;44354;46.192;-1.076;2023-03-21T06:41:42;8.80;99.90
58568;DHT22;44354;46.192;-1.076;2023-03-21T06:44:08;8.90;99.90
58568;DHT22;44354;46.192;-1.076;2023-03-21T06:46:33;9.00;99.90
58568;DHT22;44354;46.192;-1.076;2023-03-21T06:48:59;9.00;99.90
58568;DHT22;44354;46.192;-1.076;2023-03-21T06:51:24;9.00;99.90
58568;DHT22;44354;46.192;-1.076;2023-03-21T06:53:50;9.10;99.90
58568;DHT22;44354;46.192;-1.076;2023-03-21T06:56:15;9.10;99.90
58568;DHT22;44354;46.192;-1.076;2023-03-21T06:58:41;9.10;99.90
58568;DHT22;44354;46.192;-1.076;2023-03-21T07:01:07;9.20;99.90
58568;DHT22;44354;46.192;-1.076;2023-03-21T07:03:32;9.20;99.90
58568;DHT22;44354;46.192;-1.076;2023-03-21T07:06:02;9.20;99.90
58568;DHT22;44354;46.192;-1.076;2023-03-21T07:08:28;9.20;99.90
58568;DHT22;44354;46.192;-1.076;2023-03-21T07:10:54;9.20;99.90
58568;DHT22;44354;46.192;-1.076;2023-03-21T07:13:21;9.30;99.90
58568;DHT22;44354;46.192;-1.076;2023-03-21T07:15:46;9.40;99.90
58568;DHT22;44354;46.192;-1.076;2023-03-21T07:18:12;9.40;99.90
58568;DHT22;44354;46.192;-1.076;2023-03-21T07:20:37;9.50;99.90
58568;DHT22;44354;46.192;-1.076;2023-03-21T07:23:03;9.40;99.90
58568;DHT22;44354;46.192;-1.076;2023-03-21T07:25:28;9.40;99.90
58568;DHT22;44354;46.192;-1.076;2023-03-21T07:27:54;9.50;99.90
58568;DHT22;44354;46.192;-1.076;2023-03-21T07:30:20;9.50;99.90
58568;DHT22;44354;46.192;-1.076;2023-03-21T07:32:45;9.50;99.90
58568;DHT22;44354;46.192;-1.076;2023-03-21T07:35:12;9.50;99.90
58568;DHT22;44354;46.192;-1.076;2023-03-21T07:37:39;9.70;99.90
58568;DHT22;44354;46.192;-1.076;2023-03-21T07:40:05;9.80;99.90
58568;DHT22;44354;46.192;-1.076;2023-03-21T07:42:35;9.90;99.90
58568;DHT22;44354;46.192;-1.076;2023-03-21T07:45:01;10.10;99.90
58568;DHT22;44354;46.192;-1.076;2023-03-21T07:47:29;10.30;99.90
58568;DHT22;44354;46.192;-1.076;2023-03-21T07:49:55;10.30;99.90
58568;DHT22;44354;46.192;-1.076;2023-03-21T07:52:20;10.40;99.90
58568;DHT22;44354;46.192;-1.076;2023-03-21T07:54:46;10.50;99.90
58568;DHT22;44354;46.192;-1.076;2023-03-21T07:57:11;10.50;99.90
58568;DHT22;44354;46.192;-1.076;2023-03-21T07:59:37;10.50;99.90
58568;DHT22;44354;46.192;-1.076;2023-03-21T08:02:02;10.60;99.90
58568;DHT22;44354;46.192;-1.076;2023-03-21T08:04:28;10.60;99.90
58568;DHT22;44354;46.192;-1.076;2023-03-21T08:06:53;10.80;99.90
58568;DHT22;44354;46.192;-1.076;2023-03-21T08:09:19;10.80;99.90
58568;DHT22;44354;46.192;-1.076;2023-03-21T08:11:44;10.90;99.90
58568;DHT22;44354;46.192;-1.076;2023-03-21T08:14:10;11.00;99.90
58568;DHT22;44354;46.192;-1.076;2023-03-21T08:16:35;11.20;99.90
58568;DHT22;44354;46.192;-1.076;2023-03-21T08:19:01;11.30;99.90
58568;DHT22;44354;46.192;-1.076;2023-03-21T08:21:26;11.50;99.90
58568;DHT22;44354;46.192;-1.076;2023-03-21T08:23:52;11.50;99.90
58568;DHT22;44354;46.192;-1.076;2023-03-21T08:26:18;11.60;99.90
58568;DHT22;44354;46.192;-1.076;2023-03-21T08:28:44;11.60;99.90
58568;DHT22;44354;46.192;-1.076;2023-03-21T08:31:10;11.80;99.90
58568;DHT22;44354;46.192;-1.076;2023-03-21T08:33:36;12.00;99.90
58568;DHT22;44354;46.192;-1.076;2023-03-21T08:36:02;12.10;99.90
58568;DHT22;44354;46.192;-1.076;2023-03-21T08:38:27;12.20;99.90
58568;DHT22;44354;46.192;-1.076;2023-03-21T08:40:54;12.30;99.90
58568;DHT22;44354;46.192;-1.076;2023-03-21T08:43:21;12.40;99.90
58568;DHT22;44354;46.192;-1.076;2023-03-21T08:45:46;12.40;99.90
58568;DHT22;44354;46.192;-1.076;2023-03-21T08:48:14;12.30;99.90
58568;DHT22;44354;46.192;-1.076;2023-03-21T08:50:39;12.30;99.90
58568;DHT22;44354;46.192;-1.076;2023-03-21T08:53:05;12.20;99.90
58568;DHT22;44354;46.192;-1.076;2023-03-21T08:55:30;12.20;99.90
58568;DHT22;44354;46.192;-1.076;2023-03-21T08:57:57;12.20;99.90
58568;DHT22;44354;46.192;-1.076;2023-03-21T09:00:23;12.20;99.90
58568;DHT22;44354;46.192;-1.076;2023-03-21T09:02:49;12.20;99.90
58568;DHT22;44354;46.192;-1.076;2023-03-21T09:05:16;12.20;99.90
58568;DHT22;44354;46.192;-1.076;2023-03-21T09:07:42;12.30;99.90
58568;DHT22;44354;46.192;-1.076;2023-03-21T09:10:09;12.30;99.90
58568;DHT22;44354;46.192;-1.076;2023-03-21T09:12:36;12.30;99.90
58568;DHT22;44354;46.192;-1.076;2023-03-21T09:15:01;12.40;99.90
58568;DHT22;44354;46.192;-1.076;2023-03-21T09:17:27;12.50;99.90
58568;DHT22;44354;46.192;-1.076;2023-03-21T09:19:53;12.50;99.90
58568;DHT22;44354;46.192;-1.076;2023-03-21T09:22:19;12.60;99.90
58568;DHT22;44354;46.192;-1.076;2023-03-21T09:24:47;12.60;99.90
58568;DHT22;44354;46.192;-1.076;2023-03-21T09:27:14;12.70;99.90
58568;DHT22;44354;46.192;-1.076;2023-03-21T09:29:41;12.80;99.90
58568;DHT22;44354;46.192;-1.076;2023-03-21T09:32:09;12.70;99.90
58568;DHT22;44354;46.192;-1.076;2023-03-21T09:34:34;12.70;99.90
58568;DHT22;44354;46.192;-1.076;2023-03-21T09:37:05;12.70;99.90
58568;DHT22;44354;46.192;-1.076;2023-03-21T09:39:34;12.70;99.90
58568;DHT22;44354;46.192;-1.076;2023-03-21T09:47:08;12.70;99.90
58568;DHT22;44354;46.192;-1.076;2023-03-21T09:49:44;12.60;99.90
58568;DHT22;44354;46.192;-1.076;2023-03-21T09:52:23;12.60;99.90
58568;DHT22;44354;46.192;-1.076;2023-03-21T09:54:51;12.60;99.90
58568;DHT22;44354;46.192;-1.076;2023-03-21T09:59:44;12.70;99.90
58568;DHT22;44354;46.192;-1.076;2023-03-21T10:02:16;12.70;99.90
58568;DHT22;44354;46.192;-1.076;2023-03-21T10:04:45;12.80;99.90
58568;DHT22;44354;46.192;-1.076;2023-03-21T10:07:11;12.80;99.90
58568;DHT22;44354;46.192;-1.076;2023-03-21T10:09:42;12.80;99.90
58568;DHT22;44354;46.192;-1.076;2023-03-21T10:12:21;12.80;99.90
58568;DHT22;44354;46.192;-1.076;2023-03-21T10:14:48;12.70;99.90
58568;DHT22;44354;46.192;-1.076;2023-03-21T10:17:26;12.60;99.90
58568;DHT22;44354;46.192;-1.076;2023-03-21T10:19:59;12.60;99.90
58568;DHT22;44354;46.192;-1.076;2023-03-21T10:22:35;12.60;99.90
58568;DHT22;44354;46.192;-1.076;2023-03-21T10:25:01;12.60;99.90
58568;DHT22;44354;46.192;-1.076;2023-03-21T10:27:26;12.50;99.90
58568;DHT22;44354;46.192;-1.076;2023-03-21T10:29:52;12.50;99.90
58568;DHT22;44354;46.192;-1.076;2023-03-21T10:32:17;12.60;99.90
58568;DHT22;44354;46.192;-1.076;2023-03-21T10:34:48;12.70;99.90
58568;DHT22;44354;46.192;-1.076;2023-03-21T10:37:15;12.80;99.90
58568;DHT22;44354;46.192;-1.076;2023-03-21T10:39:44;12.90;99.90
58568;DHT22;44354;46.192;-1.076;2023-03-21T10:42:17;13.00;99.90
58568;DHT22;44354;46.192;-1.076;2023-03-21T10:44:45;13.10;99.90
58568;DHT22;44354;46.192;-1.076;2023-03-21T10:47:11;13.30;99.90
58568;DHT22;44354;46.192;-1.076;2023-03-21T10:49:37;13.20;99.90
58568;DHT22;44354;46.192;-1.076;2023-03-21T10:52:07;13.40;99.90
58568;DHT22;44354;46.192;-1.076;2023-03-21T10:54:33;13.40;99.90
58568;DHT22;44354;46.192;-1.076;2023-03-21T10:59:34;13.70;99.90
58568;DHT22;44354;46.192;-1.076;2023-03-21T11:02:01;14.10;99.90
58568;DHT22;44354;46.192;-1.076;2023-03-21T11:04:27;14.20;99.90
58568;DHT22;44354;46.192;-1.076;2023-03-21T11:06:54;14.10;99.90
58568;DHT22;44354;46.192;-1.076;2023-03-21T11:09:25;14.10;99.90
58568;DHT22;44354;46.192;-1.076;2023-03-21T11:12:02;14.20;99.90
58568;DHT22;44354;46.192;-1.076;2023-03-21T11:14:39;14.10;99.90
58568;DHT22;44354;46.192;-1.076;2023-03-21T11:19:50;14.50;99.90
58568;DHT22;44354;46.192;-1.076;2023-03-21T11:22:17;14.40;99.90
58568;DHT22;44354;46.192;-1.076;2023-03-21T11:24:46;14.40;99.90
58568;DHT22;44354;46.192;-1.076;2023-03-21T11:27:13;14.30;99.90
58568;DHT22;44354;46.192;-1.076;2023-03-21T11:29:39;14.30;99.90
58568;DHT22;44354;46.192;-1.076;2023-03-21T11:34:49;14.20;99.90
58568;DHT22;44354;46.192;-1.076;2023-03-21T11:39:43;14.00;99.90
58568;DHT22;44354;46.192;-1.076;2023-03-21T11:42:29;14.10;99.90
58568;DHT22;44354;46.192;-1.076;2023-03-21T11:44:56;14.10;99.90
58568;DHT22;44354;46.192;-1.076;2023-03-21T11:47:24;14.30;99.90
58568;DHT22;44354;46.192;-1.076;2023-03-21T11:49:49;14.60;99.90
58568;DHT22;44354;46.192;-1.076;2023-03-21T11:52:28;14.50;99.90
58568;DHT22;44354;46.192;-1.076;2023-03-21T11:55:08;15.00;99.90
58568;DHT22;44354;46.192;-1.076;2023-03-21T11:57:41;15.40;99.90
58568;DHT22;44354;46.192;-1.076;2023-03-21T12:05:22;16.10;99.90
58568;DHT22;44354;46.192;-1.076;2023-03-21T12:20:39;15.70;99.90
58568;DHT22;44354;46.192;-1.076;2023-03-21T12:26:36;15.60;99.90
58568;DHT22;44354;46.192;-1.076;2023-03-21T12:36:36;14.90;99.90
58568;DHT22;44354;46.192;-1.076;2023-03-21T12:41:38;14.80;99.90
58568;DHT22;44354;46.192;-1.076;2023-03-21T12:44:15;14.90;99.90
58568;DHT22;44354;46.192;-1.076;2023-03-21T12:46:43;14.70;99.90
58568;DHT22;44354;46.192;-1.076;2023-03-21T12:51:48;14.50;99.90
58568;DHT22;44354;46.192;-1.076;2023-03-21T12:54:31;14.30;99.90
58568;DHT22;44354;46.192;-1.076;2023-03-21T12:57:03;14.40;99.90
58568;DHT22;44354;46.192;-1.076;2023-03-21T12:59:34;14.30;99.90
58568;DHT22;44354;46.192;-1.076;2023-03-21T13:02:09;14.10;99.90
58568;DHT22;44354;46.192;-1.076;2023-03-21T13:04:54;13.90;99.90
58568;DHT22;44354;46.192;-1.076;2023-03-21T13:07:22;13.80;99.90
58568;DHT22;44354;46.192;-1.076;2023-03-21T13:09:49;13.70;99.90
58568;DHT22;44354;46.192;-1.076;2023-03-21T13:14:48;13.70;99.90
58568;DHT22;44354;46.192;-1.076;2023-03-21T13:17:25;13.70;99.90
58568;DHT22;44354;46.192;-1.076;2023-03-21T13:19:57;13.90;99.90
58568;DHT22;44354;46.192;-1.076;2023-03-21T13:22:29;14.50;99.90
58568;DHT22;44354;46.192;-1.076;2023-03-21T13:27:40;15.20;99.90
58568;DHT22;44354;46.192;-1.076;2023-03-21T13:30:19;14.90;99.90
58568;DHT22;44354;46.192;-1.076;2023-03-21T13:32:46;14.80;99.90
58568;DHT22;44354;46.192;-1.076;2023-03-21T13:37:39;14.70;99.90
58568;DHT22;44354;46.192;-1.076;2023-03-21T13:40:07;15.10;99.90
58568;DHT22;44354;46.192;-1.076;2023-03-21T13:42:44;15.20;99.90
58568;DHT22;44354;46.192;-1.076;2023-03-21T13:45:11;15.40;99.90
58568;DHT22;44354;46.192;-1.076;2023-03-21T13:47:38;15.40;99.90
58568;DHT22;44354;46.192;-1.076;2023-03-21T13:55:29;14.90;99.90
58568;DHT22;44354;46.192;-1.076;2023-03-21T13:57:54;14.70;99.90
58568;DHT22;44354;46.192;-1.076;2023-03-21T14:00:21;14.70;99.90
58568;DHT22;44354;46.192;-1.076;2023-03-21T14:02:56;14.80;99.90
58568;DHT22;44354;46.192;-1.076;2023-03-21T14:05:22;14.90;99.90
58568;DHT22;44354;46.192;-1.076;2023-03-21T14:07:50;14.90;99.90
58568;DHT22;44354;46.192;-1.076;2023-03-21T14:12:43;15.20;99.90
58568;DHT22;44354;46.192;-1.076;2023-03-21T14:15:19;15.40;99.90
58568;DHT22;44354;46.192;-1.076;2023-03-21T14:17:52;15.50;99.90
58568;DHT22;44354;46.192;-1.076;2023-03-21T14:20:20;15.70;99.90
58568;DHT22;44354;46.192;-1.076;2023-03-21T14:22:47;15.20;99.90
58568;DHT22;44354;46.192;-1.076;2023-03-21T14:25:14;15.00;99.90
58568;DHT22;44354;46.192;-1.076;2023-03-21T14:27:41;14.80;99.90
58568;DHT22;44354;46.192;-1.076;2023-03-21T14:30:10;14.60;99.90
58568;DHT22;44354;46.192;-1.076;2023-03-21T14:32:36;14.60;99.90
58568;DHT22;44354;46.192;-1.076;2023-03-21T14:35:02;14.20;99.90
58568;DHT22;44354;46.192;-1.076;2023-03-21T14:37:33;14.20;99.90
58568;DHT22;44354;46.192;-1.076;2023-03-21T14:40:02;14.40;99.90
58568;DHT22;44354;46.192;-1.076;2023-03-21T14:42:34;14.80;99.90
58568;DHT22;44354;46.192;-1.076;2023-03-21T14:45:00;15.00;99.90
58568;DHT22;44354;46.192;-1.076;2023-03-21T14:47:34;14.90;99.90
58568;DHT22;44354;46.192;-1.076;2023-03-21T14:50:01;15.00;99.90
58568;DHT22;44354;46.192;-1.076;2023-03-21T14:52:31;15.30;99.90
58568;DHT22;44354;46.192;-1.076;2023-03-21T14:54:57;15.40;99.90
58568;DHT22;44354;46.192;-1.076;2023-03-21T14:57:25;15.40;99.90
58568;DHT22;44354;46.192;-1.076;2023-03-21T14:59:53;15.40;99.90
58568;DHT22;44354;46.192;-1.076;2023-03-21T15:02:25;15.30;99.90
58568;DHT22;44354;46.192;-1.076;2023-03-21T15:04:52;15.10;99.90
58568;DHT22;44354;46.192;-1.076;2023-03-21T15:09:54;15.20;99.90
58568;DHT22;44354;46.192;-1.076;2023-03-21T15:12:19;14.90;99.90
58568;DHT22;44354;46.192;-1.076;2023-03-21T15:14:45;14.90;99.90
58568;DHT22;44354;46.192;-1.076;2023-03-21T15:17:11;14.70;99.90
58568;DHT22;44354;46.192;-1.076;2023-03-21T15:19:37;14.70;99.90
58568;DHT22;44354;46.192;-1.076;2023-03-21T15:22:14;14.70;99.90
58568;DHT22;44354;46.192;-1.076;2023-03-21T15:24:41;14.80;99.90
58568;DHT22;44354;46.192;-1.076;2023-03-21T15:27:13;14.90;99.90
58568;DHT22;44354;46.192;-1.076;2023-03-21T15:29:41;14.80;99.90
58568;DHT22;44354;46.192;-1.076;2023-03-21T15:32:18;14.70;99.90
58568;DHT22;44354;46.192;-1.076;2023-03-21T15:34:47;14.60;99.90
58568;DHT22;44354;46.192;-1.076;2023-03-21T15:37:14;14.50;99.90
58568;DHT22;44354;46.192;-1.076;2023-03-21T15:39:41;14.60;99.90
58568;DHT22;44354;46.192;-1.076;2023-03-21T15:44:52;14.60;99.90
58568;DHT22;44354;46.192;-1.076;2023-03-21T15:47:38;14.80;99.90
58568;DHT22;44354;46.192;-1.076;2023-03-21T15:50:09;14.70;99.90
58568;DHT22;44354;46.192;-1.076;2023-03-21T15:52:35;14.80;99.90
58568;DHT22;44354;46.192;-1.076;2023-03-21T15:55:01;14.90;99.90
58568;DHT22;44354;46.192;-1.076;2023-03-21T15:57:41;14.90;99.90
58568;DHT22;44354;46.192;-1.076;2023-03-21T16:02:45;14.70;99.90
58568;DHT22;44354;46.192;-1.076;2023-03-21T16:05:25;14.60;99.90
58568;DHT22;44354;46.192;-1.076;2023-03-21T16:07:51;14.50;99.90
58568;DHT22;44354;46.192;-1.076;2023-03-21T16:12:52;14.40;99.90
58568;DHT22;44354;46.192;-1.076;2023-03-21T16:15:18;14.30;99.90
58568;DHT22;44354;46.192;-1.076;2023-03-21T16:17:47;14.20;99.90
58568;DHT22;44354;46.192;-1.076;2023-03-21T16:20:23;14.00;99.90
58568;DHT22;44354;46.192;-1.076;2023-03-21T16:22:49;13.80;99.90
58568;DHT22;44354;46.192;-1.076;2023-03-21T16:25:15;13.70;99.90
58568;DHT22;44354;46.192;-1.076;2023-03-21T16:27:41;13.80;99.90
58568;DHT22;44354;46.192;-1.076;2023-03-21T16:30:06;13.70;99.90
58568;DHT22;44354;46.192;-1.076;2023-03-21T16:32:32;13.60;99.90
58568;DHT22;44354;46.192;-1.076;2023-03-21T16:34:58;13.50;99.90
58568;DHT22;44354;46.192;-1.076;2023-03-21T16:37:24;13.50;99.90
58568;DHT22;44354;46.192;-1.076;2023-03-21T16:39:50;13.30;99.90
58568;DHT22;44354;46.192;-1.076;2023-03-21T16:42:15;13.20;99.90
58568;DHT22;44354;46.192;-1.076;2023-03-21T16:44:41;13.10;99.90
58568;DHT22;44354;46.192;-1.076;2023-03-21T16:47:17;13.00;99.90
58568;DHT22;44354;46.192;-1.076;2023-03-21T16:49:42;12.90;99.90
58568;DHT22;44354;46.192;-1.076;2023-03-21T16:52:09;12.90;99.90
58568;DHT22;44354;46.192;-1.076;2023-03-21T16:54:35;12.90;99.90
58568;DHT22;44354;46.192;-1.076;2023-03-21T16:57:01;12.90;99.90
58568;DHT22;44354;46.192;-1.076;2023-03-21T16:59:28;12.80;99.90
58568;DHT22;44354;46.192;-1.076;2023-03-21T17:01:54;12.80;99.90
58568;DHT22;44354;46.192;-1.076;2023-03-21T17:04:20;12.80;99.90
58568;DHT22;44354;46.192;-1.076;2023-03-21T17:06:47;12.80;99.90
58568;DHT22;44354;46.192;-1.076;2023-03-21T17:09:14;12.90;99.90
58568;DHT22;44354;46.192;-1.076;2023-03-21T17:11:40;12.90;99.90
58568;DHT22;44354;46.192;-1.076;2023-03-21T17:14:06;12.90;99.90
58568;DHT22;44354;46.192;-1.076;2023-03-21T17:16:32;12.90;99.90